Terminal Aerodrome Forecast
Issued by NWS

Current Version | Previous Version | Text Only | Print | Product List | Glossary On
Versions: 1 2 3 4 5 6 7 8 9 10 11 12 13 14 15
000
FTUS44 KCRP 281720
TAFLRD
TAF
KLRD 281720Z 2818/2918 14009KT P6SM FEW015
     FM282200 15014G20KT P6SM SKC
     FM290500 13010KT P6SM SCT015
      TEMPO 2912/2915 BKN015
     FM291700 15014KT P6SM FEW060=

USA.gov is the U.S. government's official web portal to all federal, state and local government web resources and services.